sensor_id;sensor_type;location;lat;lon;timestamp;P1;durP1;ratioP1;P2;durP2;ratioP2
69392;SDS011;56582;44.624;20.378;2023-04-03T00:00:38;8.70;;;6.10;;
69392;SDS011;56582;44.624;20.378;2023-04-03T00:03:03;9.35;;;6.78;;
69392;SDS011;56582;44.624;20.378;2023-04-03T00:05:29;8.53;;;5.77;;
69392;SDS011;56582;44.624;20.378;2023-04-03T00:07:54;10.23;;;7.20;;
69392;SDS011;56582;44.624;20.378;2023-04-03T00:10:20;8.60;;;5.80;;
69392;SDS011;56582;44.624;20.378;2023-04-03T00:12:45;8.20;;;5.70;;
69392;SDS011;56582;44.624;20.378;2023-04-03T00:15:11;8.47;;;5.93;;
69392;SDS011;56582;44.624;20.378;2023-04-03T00:17:37;10.50;;;7.53;;
69392;SDS011;56582;44.624;20.378;2023-04-03T00:20:03;11.20;;;7.70;;
69392;SDS011;56582;44.624;20.378;2023-04-03T00:22:30;8.43;;;7.32;;
69392;SDS011;56582;44.624;20.378;2023-04-03T00:24:56;9.73;;;6.30;;
69392;SDS011;56582;44.624;20.378;2023-04-03T00:27:21;10.65;;;7.72;;
69392;SDS011;56582;44.624;20.378;2023-04-03T00:29:47;11.73;;;7.37;;
69392;SDS011;56582;44.624;20.378;2023-04-03T00:32:13;11.00;;;7.45;;
69392;SDS011;56582;44.624;20.378;2023-04-03T00:34:38;9.87;;;6.70;;
69392;SDS011;56582;44.624;20.378;2023-04-03T00:37:04;11.33;;;8.03;;
69392;SDS011;56582;44.624;20.378;2023-04-03T00:39:29;12.37;;;8.67;;
69392;SDS011;56582;44.624;20.378;2023-04-03T00:41:55;11.83;;;8.23;;
69392;SDS011;56582;44.624;20.378;2023-04-03T00:46:46;13.40;;;7.77;;
69392;SDS011;56582;44.624;20.378;2023-04-03T00:49:11;13.23;;;9.83;;
69392;SDS011;56582;44.624;20.378;2023-04-03T00:51:37;13.33;;;10.00;;
69392;SDS011;56582;44.624;20.378;2023-04-03T00:54:02;13.10;;;8.88;;
69392;SDS011;56582;44.624;20.378;2023-04-03T00:56:31;11.37;;;7.73;;
69392;SDS011;56582;44.624;20.378;2023-04-03T00:59:10;11.25;;;8.27;;
69392;SDS011;56582;44.624;20.378;2023-04-03T01:01:38;11.88;;;8.30;;
69392;SDS011;56582;44.624;20.378;2023-04-03T01:04:04;9.70;;;6.88;;
69392;SDS011;56582;44.624;20.378;2023-04-03T01:06:35;10.17;;;7.50;;
69392;SDS011;56582;44.624;20.378;2023-04-03T01:09:02;11.55;;;7.13;;
69392;SDS011;56582;44.624;20.378;2023-04-03T01:11:29;10.07;;;7.65;;
69392;SDS011;56582;44.624;20.378;2023-04-03T01:13:54;11.00;;;7.57;;
69392;SDS011;56582;44.624;20.378;2023-04-03T01:16:20;9.38;;;6.75;;
69392;SDS011;56582;44.624;20.378;2023-04-03T01:18:45;11.37;;;8.23;;
69392;SDS011;56582;44.624;20.378;2023-04-03T01:26:27;11.83;;;7.27;;
69392;SDS011;56582;44.624;20.378;2023-04-03T01:28:53;10.90;;;7.80;;
69392;SDS011;56582;44.624;20.378;2023-04-03T01:31:21;11.25;;;8.23;;
69392;SDS011;56582;44.624;20.378;2023-04-03T01:34:00;12.52;;;8.60;;
69392;SDS011;56582;44.624;20.378;2023-04-03T01:36:28;11.70;;;7.60;;
69392;SDS011;56582;44.624;20.378;2023-04-03T01:38:55;11.97;;;8.67;;
69392;SDS011;56582;44.624;20.378;2023-04-03T01:41:22;11.88;;;7.78;;
69392;SDS011;56582;44.624;20.378;2023-04-03T01:43:47;10.27;;;6.80;;
69392;SDS011;56582;44.624;20.378;2023-04-03T01:46:14;9.75;;;6.75;;
69392;SDS011;56582;44.624;20.378;2023-04-03T01:48:40;13.60;;;8.87;;
69392;SDS011;56582;44.624;20.378;2023-04-03T01:51:05;14.35;;;9.00;;
69392;SDS011;56582;44.624;20.378;2023-04-03T01:53:31;14.77;;;8.63;;
69392;SDS011;56582;44.624;20.378;2023-04-03T01:55:56;12.87;;;8.87;;
69392;SDS011;56582;44.624;20.378;2023-04-03T01:58:22;13.55;;;9.45;;
69392;SDS011;56582;44.624;20.378;2023-04-03T02:00:47;14.10;;;8.90;;
69392;SDS011;56582;44.624;20.378;2023-04-03T02:03:13;9.67;;;6.63;;
69392;SDS011;56582;44.624;20.378;2023-04-03T02:05:38;12.95;;;8.02;;
69392;SDS011;56582;44.624;20.378;2023-04-03T02:08:04;11.33;;;7.80;;
69392;SDS011;56582;44.624;20.378;2023-04-03T02:10:30;14.00;;;8.68;;
69392;SDS011;56582;44.624;20.378;2023-04-03T02:12:56;11.60;;;6.67;;
69392;SDS011;56582;44.624;20.378;2023-04-03T02:15:21;18.23;;;10.70;;
69392;SDS011;56582;44.624;20.378;2023-04-03T02:17:47;12.73;;;8.18;;
69392;SDS011;56582;44.624;20.378;2023-04-03T02:20:12;11.97;;;7.03;;
69392;SDS011;56582;44.624;20.378;2023-04-03T02:22:38;14.23;;;8.13;;
69392;SDS011;56582;44.624;20.378;2023-04-03T02:25:03;19.35;;;7.60;;
69392;SDS011;56582;44.624;20.378;2023-04-03T02:27:29;12.07;;;5.70;;
69392;SDS011;56582;44.624;20.378;2023-04-03T02:29:56;11.80;;;7.20;;
69392;SDS011;56582;44.624;20.378;2023-04-03T02:32:22;14.13;;;8.15;;
69392;SDS011;56582;44.624;20.378;2023-04-03T02:34:47;12.03;;;7.87;;
69392;SDS011;56582;44.624;20.378;2023-04-03T02:37:13;15.67;;;8.77;;
69392;SDS011;56582;44.624;20.378;2023-04-03T02:39:39;12.40;;;7.88;;
69392;SDS011;56582;44.624;20.378;2023-04-03T02:42:04;12.47;;;7.50;;
69392;SDS011;56582;44.624;20.378;2023-04-03T02:44:30;15.25;;;8.73;;
69392;SDS011;56582;44.624;20.378;2023-04-03T02:46:55;14.97;;;7.80;;
69392;SDS011;56582;44.624;20.378;2023-04-03T02:49:21;14.07;;;8.07;;
69392;SDS011;56582;44.624;20.378;2023-04-03T02:51:46;13.70;;;7.27;;
69392;SDS011;56582;44.624;20.378;2023-04-03T02:54:12;14.73;;;7.03;;
69392;SDS011;56582;44.624;20.378;2023-04-03T02:56:38;13.52;;;7.80;;
69392;SDS011;56582;44.624;20.378;2023-04-03T02:59:04;15.10;;;8.73;;
69392;SDS011;56582;44.624;20.378;2023-04-03T03:01:30;13.87;;;9.10;;
69392;SDS011;56582;44.624;20.378;2023-04-03T03:03:57;10.85;;;7.10;;
69392;SDS011;56582;44.624;20.378;2023-04-03T03:06:26;12.63;;;7.60;;
69392;SDS011;56582;44.624;20.378;2023-04-03T03:08:52;15.67;;;9.80;;
69392;SDS011;56582;44.624;20.378;2023-04-03T03:11:17;16.57;;;9.43;;
69392;SDS011;56582;44.624;20.378;2023-04-03T03:13:43;15.20;;;9.77;;
69392;SDS011;56582;44.624;20.378;2023-04-03T03:16:09;21.55;;;12.45;;
69392;SDS011;56582;44.624;20.378;2023-04-03T03:18:34;17.27;;;10.73;;
69392;SDS011;56582;44.624;20.378;2023-04-03T03:21:00;14.02;;;9.20;;
69392;SDS011;56582;44.624;20.378;2023-04-03T03:23:27;16.17;;;9.93;;
69392;SDS011;56582;44.624;20.378;2023-04-03T03:25:55;11.32;;;8.13;;
69392;SDS011;56582;44.624;20.378;2023-04-03T03:28:22;15.88;;;10.05;;
69392;SDS011;56582;44.624;20.378;2023-04-03T03:30:47;16.57;;;10.77;;
69392;SDS011;56582;44.624;20.378;2023-04-03T03:33:13;17.08;;;10.35;;
69392;SDS011;56582;44.624;20.378;2023-04-03T03:35:38;14.57;;;9.50;;
69392;SDS011;56582;44.624;20.378;2023-04-03T03:38:03;19.53;;;12.23;;
69392;SDS011;56582;44.624;20.378;2023-04-03T03:40:29;18.90;;;12.17;;
69392;SDS011;56582;44.624;20.378;2023-04-03T03:42:54;19.92;;;11.25;;
69392;SDS011;56582;44.624;20.378;2023-04-03T03:45:20;16.87;;;10.83;;
69392;SDS011;56582;44.624;20.378;2023-04-03T03:47:45;18.60;;;11.90;;
69392;SDS011;56582;44.624;20.378;2023-04-03T03:50:11;19.23;;;11.53;;
69392;SDS011;56582;44.624;20.378;2023-04-03T03:52:36;18.58;;;9.50;;
69392;SDS011;56582;44.624;20.378;2023-04-03T03:55:05;18.90;;;10.57;;
69392;SDS011;56582;44.624;20.378;2023-04-03T03:57:31;20.67;;;12.15;;
69392;SDS011;56582;44.624;20.378;2023-04-03T03:59:56;21.43;;;12.33;;
69392;SDS011;56582;44.624;20.378;2023-04-03T04:02:21;18.63;;;11.77;;
69392;SDS011;56582;44.624;20.378;2023-04-03T04:04:47;17.33;;;10.35;;
69392;SDS011;56582;44.624;20.378;2023-04-03T04:07:13;17.77;;;10.90;;
69392;SDS011;56582;44.624;20.378;2023-04-03T04:09:39;14.85;;;9.68;;
69392;SDS011;56582;44.624;20.378;2023-04-03T04:12:05;14.63;;;8.50;;
69392;SDS011;56582;44.624;20.378;2023-04-03T04:14:30;17.13;;;11.00;;
69392;SDS011;56582;44.624;20.378;2023-04-03T04:16:56;15.90;;;9.80;;
69392;SDS011;56582;44.624;20.378;2023-04-03T04:19:21;14.70;;;8.80;;
69392;SDS011;56582;44.624;20.378;2023-04-03T04:21:47;16.53;;;10.40;;
69392;SDS011;56582;44.624;20.378;2023-04-03T04:24:12;16.27;;;10.07;;
69392;SDS011;56582;44.624;20.378;2023-04-03T04:26:38;18.47;;;10.97;;
69392;SDS011;56582;44.624;20.378;2023-04-03T04:29:03;18.90;;;10.43;;
69392;SDS011;56582;44.624;20.378;2023-04-03T04:31:29;20.67;;;10.50;;
69392;SDS011;56582;44.624;20.378;2023-04-03T04:33:54;18.47;;;11.07;;
69392;SDS011;56582;44.624;20.378;2023-04-03T04:36:20;19.45;;;10.98;;
69392;SDS011;56582;44.624;20.378;2023-04-03T04:38:46;17.33;;;10.93;;
69392;SDS011;56582;44.624;20.378;2023-04-03T04:41:11;17.83;;;10.70;;
69392;SDS011;56582;44.624;20.378;2023-04-03T04:43:37;16.23;;;9.87;;
69392;SDS011;56582;44.624;20.378;2023-04-03T04:46:06;17.07;;;10.67;;
69392;SDS011;56582;44.624;20.378;2023-04-03T04:48:33;18.25;;;11.60;;
69392;SDS011;56582;44.624;20.378;2023-04-03T04:51:00;20.33;;;11.15;;
69392;SDS011;56582;44.624;20.378;2023-04-03T04:53:25;18.37;;;10.73;;
69392;SDS011;56582;44.624;20.378;2023-04-03T04:55:51;17.40;;;10.95;;
69392;SDS011;56582;44.624;20.378;2023-04-03T04:58:17;15.57;;;8.95;;
69392;SDS011;56582;44.624;20.378;2023-04-03T05:00:43;20.27;;;12.70;;
69392;SDS011;56582;44.624;20.378;2023-04-03T05:03:08;19.65;;;10.45;;
69392;SDS011;56582;44.624;20.378;2023-04-03T05:05:34;16.10;;;9.20;;
69392;SDS011;56582;44.624;20.378;2023-04-03T05:08:00;20.60;;;12.23;;
69392;SDS011;56582;44.624;20.378;2023-04-03T05:10:27;20.75;;;12.80;;
69392;SDS011;56582;44.624;20.378;2023-04-03T05:12:52;18.83;;;11.30;;
69392;SDS011;56582;44.624;20.378;2023-04-03T05:15:18;17.97;;;10.07;;
69392;SDS011;56582;44.624;20.378;2023-04-03T05:17:43;26.63;;;15.10;;
69392;SDS011;56582;44.624;20.378;2023-04-03T05:20:09;21.30;;;12.47;;
69392;SDS011;56582;44.624;20.378;2023-04-03T05:22:35;21.63;;;12.35;;
69392;SDS011;56582;44.624;20.378;2023-04-03T05:25:00;20.27;;;11.97;;
69392;SDS011;56582;44.624;20.378;2023-04-03T05:27:26;23.00;;;14.70;;
69392;SDS011;56582;44.624;20.378;2023-04-03T05:29:53;23.50;;;14.55;;
69392;SDS011;56582;44.624;20.378;2023-04-03T05:32:19;22.88;;;12.90;;
69392;SDS011;56582;44.624;20.378;2023-04-03T05:34:45;19.08;;;11.60;;
69392;SDS011;56582;44.624;20.378;2023-04-03T05:37:11;22.60;;;12.73;;
69392;SDS011;56582;44.624;20.378;2023-04-03T05:39:36;27.03;;;16.50;;
69392;SDS011;56582;44.624;20.378;2023-04-03T05:42:05;27.35;;;15.68;;
69392;SDS011;56582;44.624;20.378;2023-04-03T05:44:31;26.35;;;14.15;;
69392;SDS011;56582;44.624;20.378;2023-04-03T05:46:56;24.30;;;12.80;;
69392;SDS011;56582;44.624;20.378;2023-04-03T05:49:22;28.23;;;15.13;;
69392;SDS011;56582;44.624;20.378;2023-04-03T05:51:47;22.37;;;11.17;;
69392;SDS011;56582;44.624;20.378;2023-04-03T05:54:20;26.07;;;15.00;;
69392;SDS011;56582;44.624;20.378;2023-04-03T05:56:49;32.17;;;12.38;;
69392;SDS011;56582;44.624;20.378;2023-04-03T05:59:15;17.40;;;11.13;;
69392;SDS011;56582;44.624;20.378;2023-04-03T06:01:41;18.58;;;11.18;;
69392;SDS011;56582;44.624;20.378;2023-04-03T06:04:07;18.83;;;11.23;;
69392;SDS011;56582;44.624;20.378;2023-04-03T06:09:13;15.35;;;9.82;;
69392;SDS011;56582;44.624;20.378;2023-04-03T06:11:41;17.20;;;9.70;;
69392;SDS011;56582;44.624;20.378;2023-04-03T06:14:07;18.27;;;10.95;;
69392;SDS011;56582;44.624;20.378;2023-04-03T06:16:33;17.67;;;11.40;;
69392;SDS011;56582;44.624;20.378;2023-04-03T06:18:58;20.07;;;11.47;;
69392;SDS011;56582;44.624;20.378;2023-04-03T06:21:24;18.40;;;9.32;;
69392;SDS011;56582;44.624;20.378;2023-04-03T06:23:50;19.57;;;11.17;;
69392;SDS011;56582;44.624;20.378;2023-04-03T06:26:16;17.23;;;9.88;;
69392;SDS011;56582;44.624;20.378;2023-04-03T06:28:42;23.33;;;14.03;;
69392;SDS011;56582;44.624;20.378;2023-04-03T06:31:07;18.33;;;11.57;;
69392;SDS011;56582;44.624;20.378;2023-04-03T06:33:34;26.83;;;14.93;;
69392;SDS011;56582;44.624;20.378;2023-04-03T06:35:59;31.63;;;14.85;;
69392;SDS011;56582;44.624;20.378;2023-04-03T06:38:28;37.85;;;23.23;;
69392;SDS011;56582;44.624;20.378;2023-04-03T06:40:53;44.97;;;27.73;;
69392;SDS011;56582;44.624;20.378;2023-04-03T06:43:19;31.95;;;18.52;;
69392;SDS011;56582;44.624;20.378;2023-04-03T06:45:45;35.13;;;18.10;;
69392;SDS011;56582;44.624;20.378;2023-04-03T06:48:11;33.40;;;17.55;;
69392;SDS011;56582;44.624;20.378;2023-04-03T06:50:37;55.85;;;26.15;;
69392;SDS011;56582;44.624;20.378;2023-04-03T06:53:03;72.45;;;31.80;;
69392;SDS011;56582;44.624;20.378;2023-04-03T06:55:29;57.03;;;24.87;;
69392;SDS011;56582;44.624;20.378;2023-04-03T06:57:54;58.87;;;25.77;;
69392;SDS011;56582;44.624;20.378;2023-04-03T07:00:20;44.67;;;21.02;;
69392;SDS011;56582;44.624;20.378;2023-04-03T07:02:46;43.80;;;23.57;;
69392;SDS011;56582;44.624;20.378;2023-04-03T07:05:11;30.88;;;16.30;;
69392;SDS011;56582;44.624;20.378;2023-04-03T07:07:38;36.30;;;18.70;;
69392;SDS011;56582;44.624;20.378;2023-04-03T07:10:05;24.65;;;14.40;;
69392;SDS011;56582;44.624;20.378;2023-04-03T07:12:31;24.67;;;15.20;;
69392;SDS011;56582;44.624;20.378;2023-04-03T07:14:57;29.45;;;15.30;;
69392;SDS011;56582;44.624;20.378;2023-04-03T07:17:23;48.05;;;21.05;;
69392;SDS011;56582;44.624;20.378;2023-04-03T07:19:48;21.27;;;12.60;;
69392;SDS011;56582;44.624;20.378;2023-04-03T07:22:14;22.77;;;11.90;;
69392;SDS011;56582;44.624;20.378;2023-04-03T07:24:39;21.42;;;12.82;;
69392;SDS011;56582;44.624;20.378;2023-04-03T07:27:05;27.90;;;14.90;;
69392;SDS011;56582;44.624;20.378;2023-04-03T07:29:30;21.93;;;13.50;;
69392;SDS011;56582;44.624;20.378;2023-04-03T07:31:56;18.80;;;10.80;;
69392;SDS011;56582;44.624;20.378;2023-04-03T07:34:22;20.57;;;11.03;;
69392;SDS011;56582;44.624;20.378;2023-04-03T07:36:47;28.55;;;14.38;;
69392;SDS011;56582;44.624;20.378;2023-04-03T07:39:13;19.83;;;12.03;;
69392;SDS011;56582;44.624;20.378;2023-04-03T07:41:38;23.07;;;13.87;;
69392;SDS011;56582;44.624;20.378;2023-04-03T07:44:04;22.55;;;13.32;;
69392;SDS011;56582;44.624;20.378;2023-04-03T07:46:30;21.77;;;12.80;;
69392;SDS011;56582;44.624;20.378;2023-04-03T07:48:56;19.70;;;11.63;;
69392;SDS011;56582;44.624;20.378;2023-04-03T07:51:21;21.05;;;12.40;;
69392;SDS011;56582;44.624;20.378;2023-04-03T07:53:47;22.47;;;13.07;;
69392;SDS011;56582;44.624;20.378;2023-04-03T07:56:13;22.58;;;12.63;;
69392;SDS011;56582;44.624;20.378;2023-04-03T07:58:39;25.70;;;12.67;;
69392;SDS011;56582;44.624;20.378;2023-04-03T08:01:04;28.90;;;13.57;;
69392;SDS011;56582;44.624;20.378;2023-04-03T08:03:31;21.25;;;11.07;;
69392;SDS011;56582;44.624;20.378;2023-04-03T08:06:00;17.97;;;11.47;;
69392;SDS011;56582;44.624;20.378;2023-04-03T08:08:29;14.32;;;8.95;;
69392;SDS011;56582;44.624;20.378;2023-04-03T08:10:55;9.27;;;6.10;;
69392;SDS011;56582;44.624;20.378;2023-04-03T08:13:21;13.27;;;8.60;;
69392;SDS011;56582;44.624;20.378;2023-04-03T08:15:47;13.47;;;8.90;;
69392;SDS011;56582;44.624;20.378;2023-04-03T08:18:13;10.80;;;6.15;;
69392;SDS011;56582;44.624;20.378;2023-04-03T08:20:39;9.87;;;6.83;;
69392;SDS011;56582;44.624;20.378;2023-04-03T08:23:06;8.43;;;6.43;;
69392;SDS011;56582;44.624;20.378;2023-04-03T08:25:32;10.73;;;7.43;;
69392;SDS011;56582;44.624;20.378;2023-04-03T08:27:58;14.85;;;8.45;;
69392;SDS011;56582;44.624;20.378;2023-04-03T08:30:24;11.17;;;6.93;;
69392;SDS011;56582;44.624;20.378;2023-04-03T08:32:50;9.07;;;6.17;;
69392;SDS011;56582;44.624;20.378;2023-04-03T08:35:15;14.38;;;9.05;;
69392;SDS011;56582;44.624;20.378;2023-04-03T08:37:40;10.70;;;6.53;;
69392;SDS011;56582;44.624;20.378;2023-04-03T08:40:07;8.80;;;5.87;;
69392;SDS011;56582;44.624;20.378;2023-04-03T08:45:19;10.98;;;7.25;;
69392;SDS011;56582;44.624;20.378;2023-04-03T08:47:48;13.35;;;7.47;;
69392;SDS011;56582;44.624;20.378;2023-04-03T08:50:23;21.10;;;10.93;;
69392;SDS011;56582;44.624;20.378;2023-04-03T08:52:58;21.73;;;10.52;;
69392;SDS011;56582;44.624;20.378;2023-04-03T08:58:16;13.30;;;8.27;;
69392;SDS011;56582;44.624;20.378;2023-04-03T09:00:49;17.27;;;10.48;;
69392;SDS011;56582;44.624;20.378;2023-04-03T09:03:18;14.80;;;9.57;;
69392;SDS011;56582;44.624;20.378;2023-04-03T09:05:47;15.18;;;9.27;;
69392;SDS011;56582;44.624;20.378;2023-04-03T09:21:57;10.82;;;8.00;;
69392;SDS011;56582;44.624;20.378;2023-04-03T09:27:48;14.80;;;10.07;;
69392;SDS011;56582;44.624;20.378;2023-04-03T09:30:15;9.23;;;7.10;;
69392;SDS011;56582;44.624;20.378;2023-04-03T09:32:46;12.73;;;8.85;;
69392;SDS011;56582;44.624;20.378;2023-04-03T09:37:39;9.07;;;6.73;;
69392;SDS011;56582;44.624;20.378;2023-04-03T09:40:29;7.90;;;6.50;;
69392;SDS011;56582;44.624;20.378;2023-04-03T09:43:00;11.38;;;6.22;;
69392;SDS011;56582;44.624;20.378;2023-04-03T09:45:41;11.80;;;8.18;;
69392;SDS011;56582;44.624;20.378;2023-04-03T09:53:31;13.88;;;8.43;;
69392;SDS011;56582;44.624;20.378;2023-04-03T09:56:09;14.63;;;8.77;;
69392;SDS011;56582;44.624;20.378;2023-04-03T09:58:50;14.43;;;8.90;;
69392;SDS011;56582;44.624;20.378;2023-04-03T10:01:32;12.10;;;8.33;;
69392;SDS011;56582;44.624;20.378;2023-04-03T10:06:34;15.93;;;9.35;;
69392;SDS011;56582;44.624;20.378;2023-04-03T10:09:06;12.30;;;7.40;;
69392;SDS011;56582;44.624;20.378;2023-04-03T10:14:40;8.17;;;5.40;;
69392;SDS011;56582;44.624;20.378;2023-04-03T10:20:02;10.30;;;7.32;;
69392;SDS011;56582;44.624;20.378;2023-04-03T10:31:52;13.57;;;6.43;;
69392;SDS011;56582;44.624;20.378;2023-04-03T10:34:30;12.68;;;8.75;;
69392;SDS011;56582;44.624;20.378;2023-04-03T10:37:01;9.48;;;6.45;;
69392;SDS011;56582;44.624;20.378;2023-04-03T10:44:45;9.32;;;6.53;;
69392;SDS011;56582;44.624;20.378;2023-04-03T10:47:22;10.95;;;6.78;;
69392;SDS011;56582;44.624;20.378;2023-04-03T10:58:57;10.45;;;6.65;;
69392;SDS011;56582;44.624;20.378;2023-04-03T11:01:34;10.90;;;7.15;;
69392;SDS011;56582;44.624;20.378;2023-04-03T11:04:03;12.23;;;7.38;;
69392;SDS011;56582;44.624;20.378;2023-04-03T11:06:32;11.55;;;6.80;;
69392;SDS011;56582;44.624;20.378;2023-04-03T11:09:10;8.00;;;5.53;;
69392;SDS011;56582;44.624;20.378;2023-04-03T11:12:11;9.55;;;6.18;;
69392;SDS011;56582;44.624;20.378;2023-04-03T11:14:42;8.70;;;6.15;;
69392;SDS011;56582;44.624;20.378;2023-04-03T11:22:29;8.10;;;5.43;;
69392;SDS011;56582;44.624;20.378;2023-04-03T11:25:05;8.35;;;5.50;;
69392;SDS011;56582;44.624;20.378;2023-04-03T11:27:43;11.45;;;7.05;;
69392;SDS011;56582;44.624;20.378;2023-04-03T11:30:19;11.40;;;7.25;;
69392;SDS011;56582;44.624;20.378;2023-04-03T11:38:54;11.20;;;6.97;;
69392;SDS011;56582;44.624;20.378;2023-04-03T11:41:26;8.32;;;6.03;;
69392;SDS011;56582;44.624;20.378;2023-04-03T11:44:00;17.52;;;8.95;;
69392;SDS011;56582;44.624;20.378;2023-04-03T12:24:23;16.42;;;9.80;;
69392;SDS011;56582;44.624;20.378;2023-04-03T12:29:51;16.65;;;10.27;;
69392;SDS011;56582;44.624;20.378;2023-04-03T12:35:09;9.30;;;5.70;;
69392;SDS011;56582;44.624;20.378;2023-04-03T12:46:17;15.65;;;9.18;;
69392;SDS011;56582;44.624;20.378;2023-04-03T12:51:20;20.20;;;10.77;;
69392;SDS011;56582;44.624;20.378;2023-04-03T12:53:51;14.73;;;9.02;;
69392;SDS011;56582;44.624;20.378;2023-04-03T12:56:22;14.02;;;9.63;;
69392;SDS011;56582;44.624;20.378;2023-04-03T12:58:49;12.82;;;8.32;;
69392;SDS011;56582;44.624;20.378;2023-04-03T13:01:22;12.47;;;6.70;;
69392;SDS011;56582;44.624;20.378;2023-04-03T13:03:50;12.27;;;6.80;;
69392;SDS011;56582;44.624;20.378;2023-04-03T13:06:19;13.85;;;8.30;;
69392;SDS011;56582;44.624;20.378;2023-04-03T13:08:48;11.63;;;7.85;;
69392;SDS011;56582;44.624;20.378;2023-04-03T13:11:22;13.88;;;8.05;;
69392;SDS011;56582;44.624;20.378;2023-04-03T13:16:25;11.90;;;7.32;;
69392;SDS011;56582;44.624;20.378;2023-04-03T13:18:52;11.07;;;7.75;;
69392;SDS011;56582;44.624;20.378;2023-04-03T13:21:19;11.77;;;8.40;;
69392;SDS011;56582;44.624;20.378;2023-04-03T13:23:52;14.02;;;9.60;;
69392;SDS011;56582;44.624;20.378;2023-04-03T13:26:20;10.70;;;7.07;;
69392;SDS011;56582;44.624;20.378;2023-04-03T13:28:48;12.40;;;7.75;;
69392;SDS011;56582;44.624;20.378;2023-04-03T13:31:27;19.63;;;12.82;;
69392;SDS011;56582;44.624;20.378;2023-04-03T13:41:44;8.30;;;6.47;;
69392;SDS011;56582;44.624;20.378;2023-04-03T13:49:42;11.55;;;6.80;;
69392;SDS011;56582;44.624;20.378;2023-04-03T13:54:58;17.23;;;9.95;;
69392;SDS011;56582;44.624;20.378;2023-04-03T13:57:36;12.18;;;7.63;;
69392;SDS011;56582;44.624;20.378;2023-04-03T14:00:18;8.03;;;4.80;;
69392;SDS011;56582;44.624;20.378;2023-04-03T14:02:54;10.57;;;7.35;;
69392;SDS011;56582;44.624;20.378;2023-04-03T14:05:22;10.07;;;6.27;;
69392;SDS011;56582;44.624;20.378;2023-04-03T14:07:53;10.93;;;5.65;;
69392;SDS011;56582;44.624;20.378;2023-04-03T14:10:20;10.80;;;6.57;;
69392;SDS011;56582;44.624;20.378;2023-04-03T14:12:46;11.40;;;6.13;;
69392;SDS011;56582;44.624;20.378;2023-04-03T14:15:45;10.03;;;6.57;;
69392;SDS011;56582;44.624;20.378;2023-04-03T14:18:03;10.77;;;6.33;;
69392;SDS011;56582;44.624;20.378;2023-04-03T14:20:29;11.07;;;7.00;;
69392;SDS011;56582;44.624;20.378;2023-04-03T14:22:55;12.10;;;6.40;;
69392;SDS011;56582;44.624;20.378;2023-04-03T14:25:20;10.10;;;5.70;;
69392;SDS011;56582;44.624;20.378;2023-04-03T14:27:48;7.90;;;4.97;;
69392;SDS011;56582;44.624;20.378;2023-04-03T14:30:20;9.23;;;5.55;;
69392;SDS011;56582;44.624;20.378;2023-04-03T14:32:48;9.73;;;5.60;;
69392;SDS011;56582;44.624;20.378;2023-04-03T14:35:15;8.70;;;5.35;;
69392;SDS011;56582;44.624;20.378;2023-04-03T14:37:42;7.78;;;5.88;;
69392;SDS011;56582;44.624;20.378;2023-04-03T14:40:11;9.47;;;6.27;;
69392;SDS011;56582;44.624;20.378;2023-04-03T14:42:39;7.03;;;5.82;;
69392;SDS011;56582;44.624;20.378;2023-04-03T14:45:07;8.13;;;6.07;;
69392;SDS011;56582;44.624;20.378;2023-04-03T14:47:46;6.80;;;3.87;;
69392;SDS011;56582;44.624;20.378;2023-04-03T14:50:14;7.75;;;4.70;;
69392;SDS011;56582;44.624;20.378;2023-04-03T14:52:42;7.88;;;5.68;;
69392;SDS011;56582;44.624;20.378;2023-04-03T14:55:08;6.70;;;4.22;;
69392;SDS011;56582;44.624;20.378;2023-04-03T14:57:37;11.20;;;5.83;;
69392;SDS011;56582;44.624;20.378;2023-04-03T15:00:04;9.15;;;5.80;;
69392;SDS011;56582;44.624;20.378;2023-04-03T15:02:36;14.25;;;7.80;;
69392;SDS011;56582;44.624;20.378;2023-04-03T15:05:06;15.93;;;7.95;;
69392;SDS011;56582;44.624;20.378;2023-04-03T15:07:34;18.38;;;9.93;;
69392;SDS011;56582;44.624;20.378;2023-04-03T15:10:09;14.33;;;7.33;;
69392;SDS011;56582;44.624;20.378;2023-04-03T15:12:42;13.40;;;7.70;;
69392;SDS011;56582;44.624;20.378;2023-04-03T15:15:08;10.57;;;6.88;;
69392;SDS011;56582;44.624;20.378;2023-04-03T15:17:34;11.73;;;6.03;;
69392;SDS011;56582;44.624;20.378;2023-04-03T15:20:00;10.70;;;5.07;;
69392;SDS011;56582;44.624;20.378;2023-04-03T15:22:26;16.80;;;8.30;;
69392;SDS011;56582;44.624;20.378;2023-04-03T15:25:01;9.70;;;5.90;;
69392;SDS011;56582;44.624;20.378;2023-04-03T15:27:26;7.00;;;4.27;;
69392;SDS011;56582;44.624;20.378;2023-04-03T15:29:53;12.60;;;5.47;;
69392;SDS011;56582;44.624;20.378;2023-04-03T15:32:18;16.48;;;6.68;;
69392;SDS011;56582;44.624;20.378;2023-04-03T15:34:44;13.20;;;7.90;;
69392;SDS011;56582;44.624;20.378;2023-04-03T15:37:10;8.02;;;5.22;;
69392;SDS011;56582;44.624;20.378;2023-04-03T15:39:35;16.90;;;8.47;;
69392;SDS011;56582;44.624;20.378;2023-04-03T15:42:01;27.07;;;13.60;;
69392;SDS011;56582;44.624;20.378;2023-04-03T15:44:31;8.10;;;4.80;;
69392;SDS011;56582;44.624;20.378;2023-04-03T15:46:58;19.95;;;9.15;;
69392;SDS011;56582;44.624;20.378;2023-04-03T15:49:24;9.20;;;5.90;;
69392;SDS011;56582;44.624;20.378;2023-04-03T15:51:51;13.55;;;5.88;;
69392;SDS011;56582;44.624;20.378;2023-04-03T15:54:16;7.60;;;5.40;;
69392;SDS011;56582;44.624;20.378;2023-04-03T15:56:42;14.35;;;8.52;;
69392;SDS011;56582;44.624;20.378;2023-04-03T15:59:08;9.50;;;6.47;;
69392;SDS011;56582;44.624;20.378;2023-04-03T16:01:33;10.88;;;6.60;;
69392;SDS011;56582;44.624;20.378;2023-04-03T16:03:59;9.30;;;5.10;;
69392;SDS011;56582;44.624;20.378;2023-04-03T16:06:25;15.70;;;9.88;;
69392;SDS011;56582;44.624;20.378;2023-04-03T16:08:54;8.25;;;6.10;;
69392;SDS011;56582;44.624;20.378;2023-04-03T16:11:23;9.25;;;5.57;;
69392;SDS011;56582;44.624;20.378;2023-04-03T16:13:52;6.77;;;4.83;;
69392;SDS011;56582;44.624;20.378;2023-04-03T16:16:18;8.82;;;6.88;;
69392;SDS011;56582;44.624;20.378;2023-04-03T16:18:44;8.25;;;5.45;;
69392;SDS011;56582;44.624;20.378;2023-04-03T16:21:12;11.83;;;6.57;;
69392;SDS011;56582;44.624;20.378;2023-04-03T16:23:40;7.38;;;5.22;;
69392;SDS011;56582;44.624;20.378;2023-04-03T16:26:05;7.97;;;5.55;;
69392;SDS011;56582;44.624;20.378;2023-04-03T16:28:31;7.88;;;5.43;;
69392;SDS011;56582;44.624;20.378;2023-04-03T16:30:57;6.97;;;5.00;;
69392;SDS011;56582;44.624;20.378;2023-04-03T16:33:24;8.93;;;5.75;;
69392;SDS011;56582;44.624;20.378;2023-04-03T16:35:50;11.65;;;7.28;;
69392;SDS011;56582;44.624;20.378;2023-04-03T16:38:17;11.13;;;6.70;;
69392;SDS011;56582;44.624;20.378;2023-04-03T16:40:44;11.33;;;6.57;;
69392;SDS011;56582;44.624;20.378;2023-04-03T16:43:10;9.88;;;6.72;;
69392;SDS011;56582;44.624;20.378;2023-04-03T16:45:36;10.02;;;6.25;;
69392;SDS011;56582;44.624;20.378;2023-04-03T16:48:01;10.47;;;6.10;;
69392;SDS011;56582;44.624;20.378;2023-04-03T16:50:27;8.27;;;5.47;;
69392;SDS011;56582;44.624;20.378;2023-04-03T16:52:52;13.85;;;6.35;;
69392;SDS011;56582;44.624;20.378;2023-04-03T16:55:18;28.60;;;12.17;;
69392;SDS011;56582;44.624;20.378;2023-04-03T16:57:45;8.40;;;6.32;;
69392;SDS011;56582;44.624;20.378;2023-04-03T17:00:11;8.63;;;5.63;;